createdAt,value
2022-10-29T00:00:57.989Z,7.27
2022-10-29T00:03:26.063Z,6.93
2022-10-29T00:06:02.525Z,7.50
2022-10-29T00:08:33.316Z,7.07
2022-10-29T00:11:26.767Z,7.93
2022-10-29T00:13:58.156Z,7.22
2022-10-29T00:16:35.546Z,7.30
2022-10-29T00:19:04.134Z,7.17
2022-10-29T00:21:31.790Z,7.37
2022-10-29T00:23:58.914Z,7.23
2022-10-29T00:26:29.275Z,6.73
2022-10-29T00:28:57.025Z,7.00
2022-10-29T00:31:25.029Z,7.27
2022-10-29T00:33:55.451Z,7.07
2022-10-29T00:36:27.591Z,7.20
2022-10-29T00:38:54.912Z,6.93
2022-10-29T00:41:26.615Z,6.57
2022-10-29T00:44:24.921Z,7.07
2022-10-29T00:47:03.407Z,6.80
2022-10-29T00:49:34.781Z,6.63
2022-10-29T00:52:04.921Z,7.80
2022-10-29T00:54:37.026Z,7.50
2022-10-29T00:57:17.286Z,6.83
2022-10-29T01:02:14.929Z,6.90
2022-10-29T01:04:43.131Z,6.83
2022-10-29T01:07:11.066Z,6.70
2022-10-29T01:09:38.467Z,6.73
2022-10-29T01:12:48.183Z,7.33
2022-10-29T01:15:36.739Z,7.37
2022-10-29T01:18:19.561Z,6.50
2022-10-29T01:21:49.761Z,7.20
2022-10-29T01:24:35.425Z,6.60
2022-10-29T01:27:29.396Z,6.27
2022-10-29T01:30:06.131Z,5.43
2022-10-29T01:33:00.025Z,6.47
2022-10-29T01:35:57.501Z,6.27
2022-10-29T01:38:56.782Z,7.27
2022-10-29T01:41:48.475Z,6.53
2022-10-29T01:44:51.129Z,6.67
2022-10-29T01:47:27.719Z,6.30
2022-10-29T01:50:01.689Z,6.40
2022-10-29T01:52:34.224Z,7.10
2022-10-29T01:55:02.958Z,7.13
2022-10-29T01:57:38.129Z,7.70
2022-10-29T02:00:17.242Z,7.33
2022-10-29T02:03:19.907Z,7.13
2022-10-29T02:06:29.066Z,6.70
2022-10-29T02:09:28.685Z,6.80
2022-10-29T02:12:16.154Z,6.53
2022-10-29T02:15:03.295Z,7.07
2022-10-29T02:17:34.874Z,7.50
2022-10-29T02:20:12.877Z,6.93
2022-10-29T02:22:39.781Z,6.90
2022-10-29T02:25:08.183Z,7.70
2022-10-29T02:27:35.429Z,7.30
2022-10-29T02:30:02.378Z,7.77
2022-10-29T02:32:29.259Z,7.50
2022-10-29T02:34:56.018Z,7.87
2022-10-29T02:37:22.835Z,6.83
2022-10-29T02:39:49.607Z,7.80
2022-10-29T02:42:17.121Z,7.20
2022-10-29T02:44:43.924Z,7.30
2022-10-29T02:47:10.749Z,7.03
2022-10-29T02:49:37.575Z,7.30
2022-10-29T02:52:04.731Z,6.93
2022-10-29T02:54:31.948Z,7.13
2022-10-29T02:56:58.832Z,7.10
2022-10-29T02:59:26.916Z,7.70
2022-10-29T03:01:54.006Z,6.97
2022-10-29T03:04:20.978Z,7.50
2022-10-29T03:06:47.825Z,7.30
2022-10-29T03:09:14.718Z,7.87
2022-10-29T03:11:41.670Z,7.07
2022-10-29T03:14:08.538Z,6.50
2022-10-29T03:16:36.293Z,6.50
2022-10-29T03:19:03.878Z,7.23
2022-10-29T03:21:30.747Z,6.97
2022-10-29T03:23:57.655Z,6.90
2022-10-29T03:26:24.564Z,7.27
2022-10-29T03:28:51.339Z,6.50
2022-10-29T03:31:18.229Z,6.53
2022-10-29T03:33:45.052Z,6.90
2022-10-29T03:36:12.153Z,6.67
2022-10-29T03:38:39.025Z,7.10
2022-10-29T03:41:10.682Z,6.90
2022-10-29T03:43:39.204Z,7.30
2022-10-29T03:46:06.561Z,6.70
2022-10-29T03:48:34.256Z,6.93
2022-10-29T03:51:08.295Z,7.77
2022-10-29T03:53:36.990Z,7.87
2022-10-29T03:56:04.198Z,7.23
2022-10-29T03:58:31.131Z,7.57
2022-10-29T04:00:59.133Z,7.83
2022-10-29T04:03:28.987Z,8.40
2022-10-29T04:05:56.922Z,7.90
2022-10-29T04:08:23.912Z,8.10
2022-10-29T04:10:52.477Z,7.47
2022-10-29T04:13:20.068Z,7.57
2022-10-29T04:15:47.402Z,7.40
2022-10-29T04:18:14.325Z,7.50
2022-10-29T04:20:56.390Z,8.37
2022-10-29T04:29:03.724Z,7.40
2022-10-29T04:31:30.661Z,7.60
2022-10-29T04:33:57.648Z,8.30
2022-10-29T04:36:24.534Z,7.73
2022-10-29T04:38:51.327Z,7.63
2022-10-29T04:41:18.243Z,9.07
2022-10-29T04:43:45.122Z,8.10
2022-10-29T04:46:12.437Z,8.27
2022-10-29T04:48:39.448Z,7.67
2022-10-29T04:51:06.843Z,8.90
2022-10-29T04:53:33.673Z,8.60
2022-10-29T04:56:03.428Z,8.73
2022-10-29T04:58:30.245Z,9.60
2022-10-29T05:01:07.326Z,8.17
2022-10-29T05:03:34.795Z,8.80
2022-10-29T05:06:06.130Z,8.03
2022-10-29T05:08:33.402Z,7.90
2022-10-29T05:11:05.498Z,8.27
2022-10-29T05:13:34.145Z,8.63
2022-10-29T05:16:01.646Z,8.03
2022-10-29T05:18:28.507Z,7.70
2022-10-29T05:20:56.447Z,7.97
2022-10-29T05:23:23.849Z,8.57
2022-10-29T05:25:52.099Z,8.03
2022-10-29T05:28:22.770Z,7.40
2022-10-29T05:30:52.996Z,7.70
2022-10-29T05:33:24.661Z,7.47
2022-10-29T05:35:52.305Z,7.77
2022-10-29T05:38:19.209Z,7.90
2022-10-29T05:40:46.120Z,7.73
2022-10-29T05:43:15.856Z,7.80
2022-10-29T05:45:43.648Z,7.68
2022-10-29T05:50:44.183Z,8.10
2022-10-29T05:53:14.063Z,7.80
2022-10-29T05:55:42.028Z,7.40
2022-10-29T05:58:13.762Z,7.57
2022-10-29T06:00:44.620Z,8.10
2022-10-29T06:03:18.006Z,7.90
2022-10-29T06:05:47.011Z,8.57
2022-10-29T06:08:14.158Z,8.33
2022-10-29T06:10:41.313Z,7.40
2022-10-29T06:13:21.799Z,7.67
2022-10-29T06:15:50.478Z,7.78
2022-10-29T06:18:17.332Z,7.63
2022-10-29T06:20:44.282Z,7.75
2022-10-29T06:23:11.654Z,7.70
2022-10-29T06:25:38.674Z,7.63
2022-10-29T06:28:08.894Z,7.63
2022-10-29T06:30:36.845Z,7.63
2022-10-29T06:33:05.015Z,8.23
2022-10-29T06:35:32.285Z,7.70
2022-10-29T06:37:59.884Z,7.75
2022-10-29T06:40:27.432Z,7.63
2022-10-29T06:43:02.874Z,8.07
2022-10-29T06:45:31.444Z,7.10
2022-10-29T06:47:58.900Z,7.23
2022-10-29T06:50:26.889Z,6.87
2022-10-29T06:53:05.941Z,7.67
2022-10-29T06:55:36.584Z,7.17
2022-10-29T06:58:10.906Z,7.22
2022-10-29T07:00:38.002Z,7.35
2022-10-29T07:03:05.251Z,6.90
2022-10-29T07:05:33.657Z,7.80
2022-10-29T07:08:02.456Z,7.77
2022-10-29T07:10:32.126Z,7.53
2022-10-29T07:12:59.921Z,7.22
2022-10-29T07:15:30.727Z,7.87
2022-10-29T07:18:06.586Z,7.27
2022-10-29T07:20:40.304Z,7.83
2022-10-29T07:23:08.404Z,8.17
2022-10-29T07:25:37.600Z,8.30
2022-10-29T07:28:23.135Z,7.33
2022-10-29T07:30:51.584Z,8.00
2022-10-29T07:33:18.750Z,7.22
2022-10-29T07:35:46.402Z,7.40
2022-10-29T07:38:13.868Z,7.90
2022-10-29T07:40:49.281Z,7.23
2022-10-29T07:43:17.818Z,7.17
2022-10-29T07:45:53.911Z,7.45
2022-10-29T07:48:21.708Z,7.15
2022-10-29T07:50:49.356Z,7.78
2022-10-29T07:53:16.754Z,7.88
2022-10-29T07:55:43.587Z,7.22
2022-10-29T07:58:12.481Z,7.22
2022-10-29T08:00:42.040Z,7.07
2022-10-29T08:03:12.307Z,7.38
2022-10-29T08:05:42.587Z,6.85
2022-10-29T08:08:10.220Z,6.72
2022-10-29T08:10:37.166Z,7.15
2022-10-29T08:13:06.465Z,6.55
2022-10-29T08:15:34.807Z,6.50
2022-10-29T08:18:03.579Z,6.10
2022-10-29T08:20:30.520Z,6.47
2022-10-29T08:23:00.780Z,6.10
2022-10-29T08:25:28.110Z,6.25
2022-10-29T08:28:04.192Z,6.47
2022-10-29T08:30:32.459Z,5.88
2022-10-29T08:33:00.811Z,5.70
2022-10-29T08:35:28.725Z,5.35
2022-10-29T08:37:55.657Z,5.72
2022-10-29T08:40:45.340Z,6.50
2022-10-29T08:43:29.929Z,5.43
2022-10-29T08:45:57.561Z,5.63
2022-10-29T08:48:47.337Z,5.65
2022-10-29T08:51:25.749Z,5.18
2022-10-29T08:54:24.993Z,4.82
2022-10-29T08:56:50.455Z,5.03
2022-10-29T08:59:22.487Z,4.72
2022-10-29T09:01:51.148Z,4.85
2022-10-29T09:04:38.268Z,4.93
2022-10-29T09:07:34.406Z,4.80
2022-10-29T09:10:37.372Z,4.53
2022-10-29T09:13:28.466Z,3.75
2022-10-29T09:16:19.006Z,4.45
2022-10-29T09:19:10.970Z,4.50
2022-10-29T09:22:01.059Z,4.18
2022-10-29T09:25:06.658Z,4.55
2022-10-29T09:28:07.287Z,4.57
2022-10-29T09:31:04.707Z,4.07
2022-10-29T09:33:32.481Z,3.88
2022-10-29T09:36:01.204Z,3.72
2022-10-29T09:38:42.177Z,3.80
2022-10-29T09:41:11.872Z,3.90
2022-10-29T09:43:57.033Z,3.75
2022-10-29T09:46:48.323Z,3.65
2022-10-29T09:50:08.785Z,4.03
2022-10-29T09:52:41.775Z,4.30
2022-10-29T09:55:24.225Z,3.65
2022-10-29T09:57:52.399Z,3.47
2022-10-29T10:00:26.341Z,3.45
2022-10-29T10:03:16.143Z,3.80
2022-10-29T10:06:05.030Z,3.45
2022-10-29T10:08:34.461Z,4.00
2022-10-29T10:11:07.345Z,3.75
2022-10-29T10:13:54.058Z,4.35
2022-10-29T10:16:27.985Z,4.80
2022-10-29T10:18:55.226Z,4.35
2022-10-29T10:21:24.869Z,3.90
2022-10-29T10:23:54.243Z,3.80
2022-10-29T10:26:43.306Z,3.58
2022-10-29T10:29:19.423Z,3.90
2022-10-29T10:31:55.415Z,4.22
2022-10-29T10:34:39.143Z,3.25
2022-10-29T10:37:11.160Z,3.72
2022-10-29T10:39:52.687Z,3.90
2022-10-29T10:42:37.419Z,3.30
2022-10-29T10:45:37.600Z,3.33
2022-10-29T10:48:11.167Z,3.55
2022-10-29T10:50:38.401Z,3.55
2022-10-29T10:53:22.354Z,3.80
2022-10-29T10:55:57.462Z,3.20
2022-10-29T10:58:35.514Z,3.70
2022-10-29T11:01:28.508Z,3.63
2022-10-29T11:04:22.832Z,3.25
2022-10-29T11:06:55.283Z,3.15
2022-10-29T11:09:37.297Z,3.63
2022-10-29T11:12:15.479Z,3.00
2022-10-29T11:14:52.331Z,3.25
2022-10-29T11:17:32.900Z,3.35
2022-10-29T11:20:11.536Z,3.50
2022-10-29T11:23:16.328Z,3.28
2022-10-29T11:26:16.052Z,3.40
2022-10-29T11:29:02.334Z,3.45
2022-10-29T11:31:55.417Z,2.92
2022-10-29T11:34:45.383Z,3.13
2022-10-29T11:37:42.992Z,3.25
2022-10-29T11:40:23.606Z,3.10
2022-10-29T11:42:50.583Z,2.90
2022-10-29T11:46:11.887Z,3.13
2022-10-29T11:48:54.663Z,3.40
2022-10-29T11:51:57.981Z,2.75
2022-10-29T11:54:56.344Z,2.90
2022-10-29T11:57:48.394Z,2.92
2022-10-29T12:00:19.470Z,3.00
2022-10-29T12:03:15.376Z,2.85
2022-10-29T12:06:21.819Z,3.10
2022-10-29T12:09:01.046Z,3.30
2022-10-29T12:11:43.212Z,2.63
2022-10-29T12:14:44.920Z,2.88
2022-10-29T12:18:05.301Z,2.97
2022-10-29T12:20:55.073Z,2.50
2022-10-29T12:24:09.757Z,2.65
2022-10-29T12:26:43.522Z,2.85
2022-10-29T12:29:40.133Z,3.05
2022-10-29T12:32:38.847Z,2.83
2022-10-29T12:35:40.866Z,3.00
2022-10-29T12:38:40.974Z,2.88
2022-10-29T12:41:19.125Z,3.00
2022-10-29T12:43:47.065Z,3.20
2022-10-29T12:46:54.543Z,2.70
2022-10-29T12:49:45.073Z,3.22
2022-10-29T12:52:42.520Z,2.88
2022-10-29T12:55:13.916Z,3.28
2022-10-29T12:57:40.917Z,3.45
2022-10-29T13:00:27.222Z,3.13
2022-10-29T13:02:55.932Z,2.75
2022-10-29T13:05:36.587Z,2.97
2022-10-29T13:08:03.305Z,3.40
2022-10-29T13:10:33.061Z,3.08
2022-10-29T13:13:02.932Z,3.17
2022-10-29T13:15:38.122Z,2.90
2022-10-29T13:18:51.239Z,3.13
2022-10-29T13:21:59.891Z,2.83
2022-10-29T13:24:28.505Z,3.20
2022-10-29T13:26:58.096Z,2.75
2022-10-29T13:29:41.045Z,3.08
2022-10-29T13:32:08.285Z,3.15
2022-10-29T13:35:15.104Z,3.08
2022-10-29T13:38:12.830Z,3.00
2022-10-29T13:40:53.348Z,2.85
2022-10-29T13:43:22.178Z,2.90
2022-10-29T13:46:02.542Z,2.55
2022-10-29T13:48:36.037Z,3.13
2022-10-29T13:51:14.428Z,2.90
2022-10-29T13:54:00.024Z,3.15
2022-10-29T13:56:58.195Z,2.72
2022-10-29T14:00:15.678Z,2.95
2022-10-29T14:02:42.468Z,2.53
2022-10-29T14:05:15.109Z,2.85
2022-10-29T14:08:15.266Z,3.42
2022-10-29T14:10:42.017Z,2.75
2022-10-29T14:13:30.006Z,3.03
2022-10-29T14:16:10.909Z,2.90
2022-10-29T14:18:44.188Z,2.88
2022-10-29T14:21:27.885Z,2.67
2022-10-29T14:24:21.162Z,3.10
2022-10-29T14:26:48.029Z,2.78
2022-10-29T14:29:23.698Z,2.80
2022-10-29T14:32:13.270Z,2.88
2022-10-29T14:34:41.659Z,3.20
2022-10-29T14:37:21.951Z,3.03
2022-10-29T14:40:00.789Z,3.35
2022-10-29T14:42:40.268Z,3.25
2022-10-29T14:45:23.060Z,3.05
2022-10-29T14:47:58.304Z,2.67
2022-10-29T14:50:28.409Z,2.97
2022-10-29T14:53:07.551Z,2.70
2022-10-29T14:55:40.054Z,2.83
2022-10-29T14:58:30.901Z,3.22
2022-10-29T15:01:09.016Z,3.03
2022-10-29T15:03:36.362Z,3.00
2022-10-29T15:06:25.584Z,3.70
2022-10-29T15:08:56.880Z,2.92
2022-10-29T15:11:36.779Z,3.33
2022-10-29T15:14:24.264Z,3.30
2022-10-29T15:16:51.580Z,3.47
2022-10-29T15:19:19.049Z,3.58
2022-10-29T15:21:46.288Z,3.45
2022-10-29T15:24:21.801Z,3.47
2022-10-29T15:26:54.868Z,3.20
2022-10-29T15:29:33.194Z,3.38
2022-10-29T15:32:01.374Z,3.22
2022-10-29T15:34:35.309Z,3.40
2022-10-29T15:37:32.379Z,3.60
2022-10-29T15:40:26.250Z,3.55
2022-10-29T15:42:54.787Z,3.42
2022-10-29T15:45:28.208Z,3.63
2022-10-29T15:47:58.176Z,3.25
2022-10-29T15:50:41.498Z,3.92
2022-10-29T15:53:16.815Z,3.58
2022-10-29T15:55:44.329Z,3.50
2022-10-29T15:58:24.702Z,3.00
2022-10-29T16:00:51.743Z,3.47
2022-10-29T16:03:24.793Z,3.78
2022-10-29T16:05:56.829Z,3.53
2022-10-29T16:08:49.997Z,3.38
2022-10-29T16:11:22.604Z,3.50
2022-10-29T16:13:54.832Z,3.42
2022-10-29T16:16:25.425Z,3.67
2022-10-29T16:18:53.291Z,3.80
2022-10-29T16:21:24.212Z,4.03
2022-10-29T16:23:52.216Z,4.38
2022-10-29T16:26:23.960Z,3.88
2022-10-29T16:28:53.145Z,4.97
2022-10-29T16:31:29.049Z,8.25
2022-10-29T16:34:02.744Z,5.85
2022-10-29T16:36:29.644Z,6.88
2022-10-29T16:38:56.448Z,5.20
2022-10-29T16:41:23.383Z,4.57
2022-10-29T16:43:50.157Z,5.45
2022-10-29T16:46:17.130Z,5.30
2022-10-29T16:48:44.221Z,4.75
2022-10-29T16:51:11.132Z,4.25
2022-10-29T16:53:37.936Z,4.72
2022-10-29T16:56:05.771Z,5.25
2022-10-29T16:58:32.539Z,5.07
2022-10-29T17:01:08.463Z,4.53
2022-10-29T17:03:35.936Z,5.03
2022-10-29T17:06:09.200Z,4.38
2022-10-29T17:08:37.653Z,5.05
2022-10-29T17:11:08.687Z,5.03
2022-10-29T17:13:36.365Z,4.50
2022-10-29T17:16:08.675Z,4.85
2022-10-29T17:18:36.924Z,4.75
2022-10-29T17:21:04.231Z,4.35
2022-10-29T17:23:32.591Z,4.10
2022-10-29T17:26:00.332Z,4.57
2022-10-29T17:28:28.545Z,4.68
2022-10-29T17:30:55.393Z,5.18
2022-10-29T17:33:22.244Z,4.72
2022-10-29T17:35:49.194Z,5.10
2022-10-29T17:38:16.235Z,4.78
2022-10-29T17:40:46.041Z,4.68
2022-10-29T17:43:13.135Z,4.68
2022-10-29T17:45:42.062Z,5.45
2022-10-29T17:48:08.987Z,4.45
2022-10-29T17:50:36.181Z,4.20
2022-10-29T17:53:03.932Z,4.20
2022-10-29T17:55:30.876Z,4.70
2022-10-29T17:57:57.914Z,4.75
2022-10-29T18:00:25.952Z,4.80
2022-10-29T18:02:52.832Z,4.88
2022-10-29T18:05:19.750Z,4.88
2022-10-29T18:07:46.577Z,4.40
2022-10-29T18:10:13.391Z,4.50
2022-10-29T18:12:40.155Z,5.20
2022-10-29T18:15:07.904Z,4.97
2022-10-29T18:17:34.831Z,5.00
2022-10-29T18:20:01.787Z,4.38
2022-10-29T18:22:28.601Z,5.00
2022-10-29T18:24:55.442Z,4.82
2022-10-29T18:27:22.225Z,4.88
2022-10-29T18:29:49.284Z,4.50
2022-10-29T18:32:16.610Z,4.57
2022-10-29T18:34:43.502Z,4.38
2022-10-29T18:37:10.293Z,4.15
2022-10-29T18:39:38.064Z,4.18
2022-10-29T18:42:05.434Z,4.20
2022-10-29T18:44:32.350Z,4.20
2022-10-29T18:46:59.148Z,4.47
2022-10-29T18:49:27.647Z,4.38
2022-10-29T18:51:54.678Z,4.22
2022-10-29T18:54:21.904Z,4.25
2022-10-29T18:56:48.752Z,4.50
2022-10-29T18:59:15.589Z,4.60
2022-10-29T19:01:42.783Z,4.45
2022-10-29T19:04:14.357Z,4.20
2022-10-29T19:06:41.372Z,3.95
2022-10-29T19:09:10.878Z,4.45
2022-10-29T19:11:38.247Z,4.40
2022-10-29T19:14:11.498Z,4.68
2022-10-29T19:16:38.501Z,4.20
2022-10-29T19:19:11.658Z,4.63
2022-10-29T19:21:40.373Z,3.97
2022-10-29T19:24:08.317Z,4.35
2022-10-29T19:26:36.352Z,4.35
2022-10-29T19:29:05.433Z,3.97
2022-10-29T19:31:34.474Z,4.35
2022-10-29T19:34:05.998Z,4.32
2022-10-29T19:36:34.821Z,4.55
2022-10-29T19:39:01.802Z,4.95
2022-10-29T19:41:29.395Z,4.50
2022-10-29T19:44:01.177Z,4.78
2022-10-29T19:46:28.866Z,4.90
2022-10-29T19:48:58.289Z,5.00
2022-10-29T19:51:25.999Z,4.45
2022-10-29T19:53:53.230Z,4.60
2022-10-29T19:56:21.345Z,5.03
2022-10-29T19:58:48.535Z,5.00
2022-10-29T20:01:18.457Z,4.50
2022-10-29T20:03:46.780Z,4.95
2022-10-29T20:06:14.914Z,5.45
2022-10-29T20:08:42.379Z,5.30
2022-10-29T20:11:09.657Z,5.38
2022-10-29T20:13:37.788Z,5.28
2022-10-29T20:16:19.963Z,5.20
2022-10-29T20:18:48.560Z,5.13
2022-10-29T20:21:16.476Z,5.15
2022-10-29T20:23:44.736Z,4.78
2022-10-29T20:26:11.802Z,4.60
2022-10-29T20:28:39.382Z,4.43
2022-10-29T20:31:17.976Z,4.93
2022-10-29T20:33:57.616Z,4.57
2022-10-29T20:36:28.423Z,4.80
2022-10-29T20:38:56.840Z,4.88
2022-10-29T20:41:24.240Z,4.55
2022-10-29T20:43:59.738Z,4.25
2022-10-29T20:46:27.583Z,4.60
2022-10-29T20:48:54.455Z,5.05
2022-10-29T20:51:22.976Z,5.93
2022-10-29T20:53:51.106Z,5.53
2022-10-29T20:56:19.693Z,7.88
2022-10-29T20:58:46.533Z,6.47
2022-10-29T21:01:17.492Z,5.93
2022-10-29T21:03:45.525Z,5.40
2022-10-29T21:06:16.906Z,5.38
2022-10-29T21:08:48.903Z,5.43
2022-10-29T21:11:18.432Z,5.32
2022-10-29T21:13:46.202Z,4.93
2022-10-29T21:16:22.459Z,5.38
2022-10-29T21:18:53.110Z,4.50
2022-10-29T21:21:20.376Z,4.93
2022-10-29T21:23:48.251Z,5.10
2022-10-29T21:26:18.799Z,5.18
2022-10-29T21:28:47.248Z,5.30
2022-10-29T21:31:14.068Z,4.68
2022-10-29T21:33:41.220Z,4.68
2022-10-29T21:36:11.118Z,4.90
2022-10-29T21:38:37.912Z,4.97
2022-10-29T21:41:04.821Z,4.82
2022-10-29T21:43:32.168Z,4.90
2022-10-29T21:45:59.277Z,4.47
2022-10-29T21:48:29.368Z,4.60
2022-10-29T21:51:09.840Z,4.68
2022-10-29T21:53:37.226Z,4.50
2022-10-29T21:56:08.135Z,5.10
2022-10-29T21:58:35.021Z,4.78
2022-10-29T22:01:08.181Z,4.97
2022-10-29T22:03:38.646Z,4.82
2022-10-29T22:06:12.765Z,4.93
2022-10-29T22:08:40.440Z,4.75
2022-10-29T22:11:08.416Z,4.80
2022-10-29T22:13:35.710Z,5.05
2022-10-29T22:16:04.885Z,5.20
2022-10-29T22:18:32.273Z,5.30
2022-10-29T22:21:12.902Z,4.97
2022-10-29T22:23:54.218Z,5.57
2022-10-29T22:26:25.469Z,4.88
2022-10-29T22:28:52.490Z,4.85
2022-10-29T22:31:21.583Z,5.38
2022-10-29T22:33:48.972Z,5.45
2022-10-29T22:36:22.372Z,5.30
2022-10-29T22:38:57.686Z,5.50
2022-10-29T22:41:26.185Z,5.35
2022-10-29T22:43:54.638Z,5.22
2022-10-29T22:46:22.680Z,5.03
2022-10-29T22:48:49.460Z,5.13
2022-10-29T22:51:24.352Z,5.50
2022-10-29T22:53:53.275Z,6.10
2022-10-29T22:56:30.969Z,5.30
2022-10-29T22:58:58.415Z,5.72
2022-10-29T23:01:31.573Z,4.80
2022-10-29T23:03:59.164Z,4.83
2022-10-29T23:06:27.163Z,5.20
2022-10-29T23:08:58.162Z,5.63
2022-10-29T23:11:30.169Z,5.67
2022-10-29T23:13:59.968Z,5.27
2022-10-29T23:16:30.323Z,5.10
2022-10-29T23:19:00.954Z,6.00
2022-10-29T23:21:28.607Z,5.40
2022-10-29T23:23:55.540Z,5.37
2022-10-29T23:26:24.587Z,5.40
2022-10-29T23:28:51.493Z,5.57
2022-10-29T23:31:21.822Z,5.85
2022-10-29T23:33:52.944Z,5.33
2022-10-29T23:36:23.519Z,4.90
2022-10-29T23:38:59.252Z,5.15
2022-10-29T23:41:29.726Z,5.38
2022-10-29T23:43:57.442Z,4.93
2022-10-29T23:46:24.377Z,5.33
2022-10-29T23:48:51.316Z,5.30
2022-10-29T23:51:18.407Z,5.07
2022-10-29T23:53:45.428Z,4.70
2022-10-29T23:56:12.189Z,4.93
2022-10-29T23:58:39.383Z,5.47
